sensor_id;sensor_type;location;lat;lon;timestamp;P1;durP1;ratioP1;P2;durP2;ratioP2
11535;SDS011;5824;49.336;8.652;2023-04-04T00:00:00;3.47;;;1.70;;
11535;SDS011;5824;49.336;8.652;2023-04-04T00:02:26;2.13;;;1.93;;
11535;SDS011;5824;49.336;8.652;2023-04-04T00:04:51;4.20;;;2.30;;
11535;SDS011;5824;49.336;8.652;2023-04-04T00:07:17;3.87;;;1.70;;
11535;SDS011;5824;49.336;8.652;2023-04-04T00:09:43;3.20;;;1.70;;
11535;SDS011;5824;49.336;8.652;2023-04-04T00:12:09;2.57;;;1.80;;
11535;SDS011;5824;49.336;8.652;2023-04-04T00:14:34;6.00;;;2.07;;
11535;SDS011;5824;49.336;8.652;2023-04-04T00:17:00;3.10;;;1.57;;
11535;SDS011;5824;49.336;8.652;2023-04-04T00:19:25;3.80;;;2.00;;
11535;SDS011;5824;49.336;8.652;2023-04-04T00:21:51;5.30;;;1.73;;
11535;SDS011;5824;49.336;8.652;2023-04-04T00:24:16;2.50;;;1.60;;
11535;SDS011;5824;49.336;8.652;2023-04-04T00:26:42;2.10;;;1.90;;
11535;SDS011;5824;49.336;8.652;2023-04-04T00:29:07;6.83;;;2.00;;
11535;SDS011;5824;49.336;8.652;2023-04-04T00:31:33;3.53;;;2.33;;
11535;SDS011;5824;49.336;8.652;2023-04-04T00:33:59;2.03;;;1.80;;
11535;SDS011;5824;49.336;8.652;2023-04-04T00:36:25;2.57;;;1.80;;
11535;SDS011;5824;49.336;8.652;2023-04-04T00:38:51;5.80;;;1.70;;
11535;SDS011;5824;49.336;8.652;2023-04-04T00:41:16;2.57;;;1.80;;
11535;SDS011;5824;49.336;8.652;2023-04-04T00:43:42;3.97;;;1.90;;
11535;SDS011;5824;49.336;8.652;2023-04-04T00:46:08;4.10;;;1.97;;
11535;SDS011;5824;49.336;8.652;2023-04-04T00:48:35;5.57;;;1.90;;
11535;SDS011;5824;49.336;8.652;2023-04-04T00:51:01;3.53;;;2.33;;
11535;SDS011;5824;49.336;8.652;2023-04-04T00:53:26;2.93;;;1.60;;
11535;SDS011;5824;49.336;8.652;2023-04-04T00:55:52;3.23;;;1.60;;
11535;SDS011;5824;49.336;8.652;2023-04-04T00:58:17;4.80;;;1.80;;
11535;SDS011;5824;49.336;8.652;2023-04-04T01:00:43;5.10;;;2.10;;
11535;SDS011;5824;49.336;8.652;2023-04-04T01:03:09;4.63;;;2.30;;
11535;SDS011;5824;49.336;8.652;2023-04-04T01:05:36;3.37;;;2.40;;
11535;SDS011;5824;49.336;8.652;2023-04-04T01:08:02;2.73;;;1.90;;
11535;SDS011;5824;49.336;8.652;2023-04-04T01:10:32;4.40;;;1.60;;
11535;SDS011;5824;49.336;8.652;2023-04-04T01:12:58;3.97;;;2.00;;
11535;SDS011;5824;49.336;8.652;2023-04-04T01:15:24;3.63;;;1.90;;
11535;SDS011;5824;49.336;8.652;2023-04-04T01:17:50;1.97;;;1.63;;
11535;SDS011;5824;49.336;8.652;2023-04-04T01:20:21;3.60;;;1.87;;
11535;SDS011;5824;49.336;8.652;2023-04-04T01:22:49;1.80;;;1.60;;
11535;SDS011;5824;49.336;8.652;2023-04-04T01:25:17;2.60;;;1.70;;
11535;SDS011;5824;49.336;8.652;2023-04-04T01:27:49;2.73;;;2.00;;
11535;SDS011;5824;49.336;8.652;2023-04-04T01:30:15;6.30;;;2.20;;
11535;SDS011;5824;49.336;8.652;2023-04-04T01:32:53;4.37;;;2.10;;
11535;SDS011;5824;49.336;8.652;2023-04-04T01:35:36;3.80;;;1.70;;
11535;SDS011;5824;49.336;8.652;2023-04-04T01:40:50;2.30;;;1.80;;
11535;SDS011;5824;49.336;8.652;2023-04-04T01:43:19;2.97;;;2.00;;
11535;SDS011;5824;49.336;8.652;2023-04-04T01:45:45;2.50;;;1.70;;
11535;SDS011;5824;49.336;8.652;2023-04-04T01:48:12;2.60;;;1.83;;
11535;SDS011;5824;49.336;8.652;2023-04-04T01:50:40;3.47;;;1.70;;
11535;SDS011;5824;49.336;8.652;2023-04-04T01:53:06;3.47;;;1.63;;
11535;SDS011;5824;49.336;8.652;2023-04-04T01:55:31;4.27;;;1.90;;
11535;SDS011;5824;49.336;8.652;2023-04-04T01:57:57;2.30;;;1.80;;
11535;SDS011;5824;49.336;8.652;2023-04-04T02:00:22;2.83;;;1.90;;
11535;SDS011;5824;49.336;8.652;2023-04-04T02:02:48;1.80;;;1.30;;
11535;SDS011;5824;49.336;8.652;2023-04-04T02:05:14;2.87;;;2.07;;
11535;SDS011;5824;49.336;8.652;2023-04-04T02:07:40;3.07;;;1.90;;
11535;SDS011;5824;49.336;8.652;2023-04-04T02:10:05;2.77;;;1.53;;
11535;SDS011;5824;49.336;8.652;2023-04-04T02:12:31;4.60;;;1.83;;
11535;SDS011;5824;49.336;8.652;2023-04-04T02:14:57;3.50;;;2.07;;
11535;SDS011;5824;49.336;8.652;2023-04-04T02:17:23;5.97;;;2.37;;
11535;SDS011;5824;49.336;8.652;2023-04-04T02:19:50;4.20;;;2.10;;
11535;SDS011;5824;49.336;8.652;2023-04-04T02:22:16;3.53;;;2.07;;
11535;SDS011;5824;49.336;8.652;2023-04-04T02:24:42;3.33;;;2.00;;
11535;SDS011;5824;49.336;8.652;2023-04-04T02:27:08;7.43;;;2.00;;
11535;SDS011;5824;49.336;8.652;2023-04-04T02:29:33;3.30;;;2.03;;
11535;SDS011;5824;49.336;8.652;2023-04-04T02:31:59;3.23;;;1.90;;
11535;SDS011;5824;49.336;8.652;2023-04-04T02:34:25;4.47;;;2.53;;
11535;SDS011;5824;49.336;8.652;2023-04-04T02:36:50;2.77;;;1.73;;
11535;SDS011;5824;49.336;8.652;2023-04-04T02:39:16;2.30;;;1.80;;
11535;SDS011;5824;49.336;8.652;2023-04-04T02:41:41;4.03;;;2.10;;
11535;SDS011;5824;49.336;8.652;2023-04-04T02:44:07;4.30;;;2.40;;
11535;SDS011;5824;49.336;8.652;2023-04-04T02:46:34;3.30;;;2.17;;
11535;SDS011;5824;49.336;8.652;2023-04-04T02:48:59;2.67;;;1.90;;
11535;SDS011;5824;49.336;8.652;2023-04-04T02:51:25;2.47;;;1.80;;
11535;SDS011;5824;49.336;8.652;2023-04-04T02:53:51;4.00;;;1.93;;
11535;SDS011;5824;49.336;8.652;2023-04-04T02:56:17;3.30;;;1.70;;
11535;SDS011;5824;49.336;8.652;2023-04-04T02:58:43;1.90;;;1.63;;
11535;SDS011;5824;49.336;8.652;2023-04-04T03:01:08;2.13;;;1.93;;
11535;SDS011;5824;49.336;8.652;2023-04-04T03:03:34;6.13;;;2.00;;
11535;SDS011;5824;49.336;8.652;2023-04-04T03:06:00;2.20;;;1.90;;
11535;SDS011;5824;49.336;8.652;2023-04-04T03:10:53;5.03;;;2.10;;
11535;SDS011;5824;49.336;8.652;2023-04-04T03:13:19;5.07;;;2.30;;
11535;SDS011;5824;49.336;8.652;2023-04-04T03:15:45;4.73;;;2.00;;
11535;SDS011;5824;49.336;8.652;2023-04-04T03:18:10;5.20;;;2.90;;
11535;SDS011;5824;49.336;8.652;2023-04-04T03:20:36;3.90;;;2.93;;
11535;SDS011;5824;49.336;8.652;2023-04-04T03:23:02;11.17;;;4.50;;
11535;SDS011;5824;49.336;8.652;2023-04-04T03:25:31;5.67;;;2.80;;
11535;SDS011;5824;49.336;8.652;2023-04-04T03:27:57;5.87;;;3.00;;
11535;SDS011;5824;49.336;8.652;2023-04-04T03:30:22;3.40;;;2.70;;
11535;SDS011;5824;49.336;8.652;2023-04-04T03:32:48;6.27;;;2.47;;
11535;SDS011;5824;49.336;8.652;2023-04-04T03:35:14;4.13;;;2.40;;
11535;SDS011;5824;49.336;8.652;2023-04-04T03:37:40;3.40;;;1.97;;
11535;SDS011;5824;49.336;8.652;2023-04-04T03:40:06;2.30;;;2.00;;
11535;SDS011;5824;49.336;8.652;2023-04-04T03:42:33;2.50;;;2.20;;
11535;SDS011;5824;49.336;8.652;2023-04-04T03:44:59;6.20;;;2.20;;
11535;SDS011;5824;49.336;8.652;2023-04-04T03:47:24;3.73;;;2.10;;
11535;SDS011;5824;49.336;8.652;2023-04-04T03:49:50;2.13;;;1.83;;
11535;SDS011;5824;49.336;8.652;2023-04-04T03:52:16;3.83;;;2.10;;
11535;SDS011;5824;49.336;8.652;2023-04-04T03:54:42;2.37;;;1.80;;
11535;SDS011;5824;49.336;8.652;2023-04-04T03:57:08;4.27;;;2.33;;
11535;SDS011;5824;49.336;8.652;2023-04-04T03:59:34;3.00;;;2.00;;
11535;SDS011;5824;49.336;8.652;2023-04-04T04:01:59;3.93;;;2.13;;
11535;SDS011;5824;49.336;8.652;2023-04-04T04:04:25;2.60;;;2.17;;
11535;SDS011;5824;49.336;8.652;2023-04-04T04:06:50;3.23;;;1.90;;
11535;SDS011;5824;49.336;8.652;2023-04-04T04:09:16;4.37;;;2.07;;
11535;SDS011;5824;49.336;8.652;2023-04-04T04:11:43;3.80;;;2.10;;
11535;SDS011;5824;49.336;8.652;2023-04-04T04:14:08;3.30;;;1.77;;
11535;SDS011;5824;49.336;8.652;2023-04-04T04:16:34;3.93;;;2.17;;
11535;SDS011;5824;49.336;8.652;2023-04-04T04:19:03;2.70;;;1.97;;
11535;SDS011;5824;49.336;8.652;2023-04-04T04:21:28;7.30;;;2.27;;
11535;SDS011;5824;49.336;8.652;2023-04-04T04:23:54;4.33;;;2.00;;
11535;SDS011;5824;49.336;8.652;2023-04-04T04:26:19;3.23;;;2.10;;
11535;SDS011;5824;49.336;8.652;2023-04-04T04:28:45;2.83;;;1.83;;
11535;SDS011;5824;49.336;8.652;2023-04-04T04:31:12;3.57;;;1.87;;
11535;SDS011;5824;49.336;8.652;2023-04-04T04:33:37;3.77;;;2.20;;
11535;SDS011;5824;49.336;8.652;2023-04-04T04:36:04;1.80;;;1.70;;
11535;SDS011;5824;49.336;8.652;2023-04-04T04:38:31;2.93;;;1.70;;
11535;SDS011;5824;49.336;8.652;2023-04-04T04:40:56;4.33;;;2.13;;
11535;SDS011;5824;49.336;8.652;2023-04-04T04:43:22;4.37;;;2.53;;
11535;SDS011;5824;49.336;8.652;2023-04-04T04:45:48;2.20;;;1.90;;
11535;SDS011;5824;49.336;8.652;2023-04-04T04:48:14;2.63;;;2.20;;
11535;SDS011;5824;49.336;8.652;2023-04-04T04:50:46;2.50;;;2.30;;
11535;SDS011;5824;49.336;8.652;2023-04-04T04:53:12;2.60;;;1.80;;
11535;SDS011;5824;49.336;8.652;2023-04-04T04:55:38;4.33;;;2.00;;
11535;SDS011;5824;49.336;8.652;2023-04-04T04:58:04;5.33;;;2.10;;
11535;SDS011;5824;49.336;8.652;2023-04-04T05:00:31;2.90;;;2.30;;
11535;SDS011;5824;49.336;8.652;2023-04-04T05:02:57;3.80;;;2.40;;
11535;SDS011;5824;49.336;8.652;2023-04-04T05:05:24;3.00;;;2.40;;
11535;SDS011;5824;49.336;8.652;2023-04-04T05:07:50;3.50;;;2.20;;
11535;SDS011;5824;49.336;8.652;2023-04-04T05:10:16;3.77;;;2.10;;
11535;SDS011;5824;49.336;8.652;2023-04-04T05:12:42;4.70;;;2.40;;
11535;SDS011;5824;49.336;8.652;2023-04-04T05:15:09;6.47;;;2.77;;
11535;SDS011;5824;49.336;8.652;2023-04-04T05:17:36;3.13;;;2.00;;
11535;SDS011;5824;49.336;8.652;2023-04-04T05:20:02;2.50;;;2.30;;
11535;SDS011;5824;49.336;8.652;2023-04-04T05:22:28;7.00;;;1.90;;
11535;SDS011;5824;49.336;8.652;2023-04-04T05:24:54;3.07;;;2.13;;
11535;SDS011;5824;49.336;8.652;2023-04-04T05:27:20;2.87;;;2.10;;
11535;SDS011;5824;49.336;8.652;2023-04-04T05:29:45;4.00;;;2.10;;
11535;SDS011;5824;49.336;8.652;2023-04-04T05:32:12;3.50;;;2.40;;
11535;SDS011;5824;49.336;8.652;2023-04-04T05:34:37;3.13;;;2.00;;
11535;SDS011;5824;49.336;8.652;2023-04-04T05:37:03;4.47;;;2.10;;
11535;SDS011;5824;49.336;8.652;2023-04-04T05:39:28;7.83;;;2.20;;
11535;SDS011;5824;49.336;8.652;2023-04-04T05:41:54;2.17;;;1.97;;
11535;SDS011;5824;49.336;8.652;2023-04-04T05:44:20;5.43;;;2.77;;
11535;SDS011;5824;49.336;8.652;2023-04-04T05:46:45;3.10;;;2.20;;
11535;SDS011;5824;49.336;8.652;2023-04-04T05:49:11;2.53;;;1.97;;
11535;SDS011;5824;49.336;8.652;2023-04-04T05:51:37;4.97;;;2.30;;
11535;SDS011;5824;49.336;8.652;2023-04-04T05:54:02;4.00;;;2.20;;
11535;SDS011;5824;49.336;8.652;2023-04-04T05:56:28;9.60;;;2.50;;
11535;SDS011;5824;49.336;8.652;2023-04-04T05:58:53;3.03;;;2.00;;
11535;SDS011;5824;49.336;8.652;2023-04-04T06:01:19;3.07;;;1.90;;
11535;SDS011;5824;49.336;8.652;2023-04-04T06:03:45;9.37;;;2.53;;
11535;SDS011;5824;49.336;8.652;2023-04-04T06:06:10;4.20;;;2.30;;
11535;SDS011;5824;49.336;8.652;2023-04-04T06:08:36;3.97;;;2.17;;
11535;SDS011;5824;49.336;8.652;2023-04-04T06:11:02;3.40;;;1.90;;
11535;SDS011;5824;49.336;8.652;2023-04-04T06:13:27;3.70;;;2.00;;
11535;SDS011;5824;49.336;8.652;2023-04-04T06:15:53;1.97;;;1.77;;
11535;SDS011;5824;49.336;8.652;2023-04-04T06:18:18;2.60;;;2.03;;
11535;SDS011;5824;49.336;8.652;2023-04-04T06:20:44;3.70;;;2.37;;
11535;SDS011;5824;49.336;8.652;2023-04-04T06:23:10;4.87;;;2.27;;
11535;SDS011;5824;49.336;8.652;2023-04-04T06:25:35;2.40;;;2.13;;
11535;SDS011;5824;49.336;8.652;2023-04-04T06:28:01;3.30;;;2.33;;
11535;SDS011;5824;49.336;8.652;2023-04-04T06:30:27;3.00;;;2.20;;
11535;SDS011;5824;49.336;8.652;2023-04-04T06:32:53;2.63;;;2.00;;
11535;SDS011;5824;49.336;8.652;2023-04-04T06:35:19;3.60;;;1.90;;
11535;SDS011;5824;49.336;8.652;2023-04-04T06:37:45;2.83;;;1.90;;
11535;SDS011;5824;49.336;8.652;2023-04-04T06:40:11;3.87;;;2.37;;
11535;SDS011;5824;49.336;8.652;2023-04-04T06:42:37;5.10;;;2.50;;
11535;SDS011;5824;49.336;8.652;2023-04-04T06:45:02;2.93;;;2.20;;
11535;SDS011;5824;49.336;8.652;2023-04-04T06:47:28;2.97;;;2.30;;
11535;SDS011;5824;49.336;8.652;2023-04-04T06:49:54;3.73;;;2.40;;
11535;SDS011;5824;49.336;8.652;2023-04-04T06:52:19;2.63;;;2.00;;
11535;SDS011;5824;49.336;8.652;2023-04-04T06:54:45;2.70;;;2.10;;
11535;SDS011;5824;49.336;8.652;2023-04-04T06:57:11;6.40;;;2.57;;
11535;SDS011;5824;49.336;8.652;2023-04-04T06:59:36;4.00;;;2.27;;
11535;SDS011;5824;49.336;8.652;2023-04-04T07:02:02;3.27;;;2.20;;
11535;SDS011;5824;49.336;8.652;2023-04-04T07:04:27;3.70;;;2.20;;
11535;SDS011;5824;49.336;8.652;2023-04-04T07:06:56;4.30;;;2.50;;
11535;SDS011;5824;49.336;8.652;2023-04-04T07:09:22;6.73;;;2.40;;
11535;SDS011;5824;49.336;8.652;2023-04-04T07:11:47;2.50;;;2.30;;
11535;SDS011;5824;49.336;8.652;2023-04-04T07:14:13;3.90;;;2.50;;
11535;SDS011;5824;49.336;8.652;2023-04-04T07:16:38;3.73;;;2.53;;
11535;SDS011;5824;49.336;8.652;2023-04-04T07:19:04;6.83;;;2.50;;
11535;SDS011;5824;49.336;8.652;2023-04-04T07:21:29;3.60;;;2.17;;
11535;SDS011;5824;49.336;8.652;2023-04-04T07:23:56;5.20;;;2.00;;
11535;SDS011;5824;49.336;8.652;2023-04-04T07:26:23;3.83;;;2.27;;
11535;SDS011;5824;49.336;8.652;2023-04-04T07:28:49;3.80;;;2.20;;
11535;SDS011;5824;49.336;8.652;2023-04-04T07:31:15;8.97;;;2.87;;
11535;SDS011;5824;49.336;8.652;2023-04-04T07:33:40;3.20;;;2.30;;
11535;SDS011;5824;49.336;8.652;2023-04-04T07:36:06;7.83;;;2.50;;
11535;SDS011;5824;49.336;8.652;2023-04-04T07:38:32;6.13;;;2.77;;
11535;SDS011;5824;49.336;8.652;2023-04-04T07:40:57;5.77;;;2.23;;
11535;SDS011;5824;49.336;8.652;2023-04-04T07:43:23;4.90;;;3.10;;
11535;SDS011;5824;49.336;8.652;2023-04-04T07:45:49;3.80;;;2.97;;
11535;SDS011;5824;49.336;8.652;2023-04-04T07:48:14;4.97;;;3.07;;
11535;SDS011;5824;49.336;8.652;2023-04-04T07:50:40;6.83;;;2.93;;
11535;SDS011;5824;49.336;8.652;2023-04-04T07:53:05;4.47;;;3.13;;
11535;SDS011;5824;49.336;8.652;2023-04-04T07:55:31;4.57;;;3.00;;
11535;SDS011;5824;49.336;8.652;2023-04-04T07:57:57;5.83;;;3.60;;
11535;SDS011;5824;49.336;8.652;2023-04-04T08:00:22;6.20;;;3.10;;
11535;SDS011;5824;49.336;8.652;2023-04-04T08:02:54;5.77;;;3.33;;
11535;SDS011;5824;49.336;8.652;2023-04-04T08:05:20;4.37;;;3.13;;
11535;SDS011;5824;49.336;8.652;2023-04-04T08:07:46;7.73;;;3.10;;
11535;SDS011;5824;49.336;8.652;2023-04-04T08:10:12;6.00;;;3.20;;
11535;SDS011;5824;49.336;8.652;2023-04-04T08:12:38;5.57;;;3.40;;
11535;SDS011;5824;49.336;8.652;2023-04-04T08:15:03;6.17;;;3.40;;
11535;SDS011;5824;49.336;8.652;2023-04-04T08:17:29;5.70;;;3.50;;
11535;SDS011;5824;49.336;8.652;2023-04-04T08:19:55;4.63;;;3.40;;
11535;SDS011;5824;49.336;8.652;2023-04-04T08:22:21;7.20;;;3.10;;
11535;SDS011;5824;49.336;8.652;2023-04-04T08:24:46;4.63;;;3.40;;
11535;SDS011;5824;49.336;8.652;2023-04-04T08:27:12;4.27;;;3.00;;
11535;SDS011;5824;49.336;8.652;2023-04-04T08:29:39;8.00;;;3.40;;
11535;SDS011;5824;49.336;8.652;2023-04-04T08:32:05;5.53;;;3.47;;
11535;SDS011;5824;49.336;8.652;2023-04-04T08:34:31;4.07;;;2.90;;
11535;SDS011;5824;49.336;8.652;2023-04-04T08:36:56;4.63;;;3.10;;
11535;SDS011;5824;49.336;8.652;2023-04-04T08:39:22;4.97;;;3.33;;
11535;SDS011;5824;49.336;8.652;2023-04-04T08:41:48;7.10;;;3.80;;
11535;SDS011;5824;49.336;8.652;2023-04-04T08:44:22;5.90;;;3.80;;
11535;SDS011;5824;49.336;8.652;2023-04-04T08:46:50;5.10;;;3.20;;
11535;SDS011;5824;49.336;8.652;2023-04-04T08:49:16;5.53;;;4.00;;
11535;SDS011;5824;49.336;8.652;2023-04-04T08:51:45;5.50;;;4.00;;
11535;SDS011;5824;49.336;8.652;2023-04-04T08:54:13;4.93;;;3.97;;
11535;SDS011;5824;49.336;8.652;2023-04-04T08:56:40;4.90;;;3.43;;
11535;SDS011;5824;49.336;8.652;2023-04-04T08:59:05;5.53;;;3.30;;
11535;SDS011;5824;49.336;8.652;2023-04-04T09:01:31;10.50;;;3.20;;
11535;SDS011;5824;49.336;8.652;2023-04-04T09:03:57;5.70;;;3.30;;
11535;SDS011;5824;49.336;8.652;2023-04-04T09:06:24;3.60;;;2.70;;
11535;SDS011;5824;49.336;8.652;2023-04-04T09:08:50;4.50;;;3.30;;
11535;SDS011;5824;49.336;8.652;2023-04-04T09:11:18;6.60;;;3.47;;
11535;SDS011;5824;49.336;8.652;2023-04-04T09:13:45;5.57;;;3.10;;
11535;SDS011;5824;49.336;8.652;2023-04-04T09:16:14;6.23;;;3.33;;
11535;SDS011;5824;49.336;8.652;2023-04-04T09:18:40;6.03;;;3.43;;
11535;SDS011;5824;49.336;8.652;2023-04-04T09:21:10;5.30;;;3.13;;
11535;SDS011;5824;49.336;8.652;2023-04-04T09:23:36;4.40;;;2.67;;
11535;SDS011;5824;49.336;8.652;2023-04-04T09:26:02;5.10;;;2.80;;
11535;SDS011;5824;49.336;8.652;2023-04-04T09:28:28;4.43;;;2.90;;
11535;SDS011;5824;49.336;8.652;2023-04-04T09:30:54;5.80;;;3.10;;
11535;SDS011;5824;49.336;8.652;2023-04-04T09:33:20;5.67;;;3.10;;
11535;SDS011;5824;49.336;8.652;2023-04-04T09:35:49;6.80;;;3.30;;
11535;SDS011;5824;49.336;8.652;2023-04-04T09:38:19;6.43;;;3.10;;
11535;SDS011;5824;49.336;8.652;2023-04-04T09:40:47;7.13;;;3.40;;
11535;SDS011;5824;49.336;8.652;2023-04-04T09:45:49;8.97;;;3.30;;
11535;SDS011;5824;49.336;8.652;2023-04-04T09:51:17;4.60;;;3.20;;
11535;SDS011;5824;49.336;8.652;2023-04-04T09:53:47;4.20;;;3.20;;
11535;SDS011;5824;49.336;8.652;2023-04-04T10:16:49;4.50;;;3.17;;
11535;SDS011;5824;49.336;8.652;2023-04-04T10:19:20;5.43;;;3.17;;
11535;SDS011;5824;49.336;8.652;2023-04-04T10:21:46;4.97;;;3.00;;
11535;SDS011;5824;49.336;8.652;2023-04-04T10:24:12;5.27;;;3.10;;
11535;SDS011;5824;49.336;8.652;2023-04-04T10:26:38;4.30;;;3.10;;
11535;SDS011;5824;49.336;8.652;2023-04-04T10:29:03;6.27;;;4.30;;
11535;SDS011;5824;49.336;8.652;2023-04-04T10:31:29;6.37;;;3.40;;
11535;SDS011;5824;49.336;8.652;2023-04-04T10:39:38;4.13;;;2.60;;
11535;SDS011;5824;49.336;8.652;2023-04-04T10:42:10;4.83;;;3.00;;
11535;SDS011;5824;49.336;8.652;2023-04-04T10:44:39;4.57;;;2.97;;
11535;SDS011;5824;49.336;8.652;2023-04-04T10:47:20;4.87;;;3.33;;
11535;SDS011;5824;49.336;8.652;2023-04-04T10:49:47;5.00;;;2.87;;
11535;SDS011;5824;49.336;8.652;2023-04-04T10:52:15;5.50;;;3.40;;
11535;SDS011;5824;49.336;8.652;2023-04-04T10:54:46;4.20;;;3.10;;
11535;SDS011;5824;49.336;8.652;2023-04-04T10:57:16;5.73;;;3.50;;
11535;SDS011;5824;49.336;8.652;2023-04-04T10:59:54;5.10;;;3.00;;
11535;SDS011;5824;49.336;8.652;2023-04-04T11:05:10;4.83;;;2.80;;
11535;SDS011;5824;49.336;8.652;2023-04-04T11:07:39;4.90;;;3.30;;
11535;SDS011;5824;49.336;8.652;2023-04-04T11:10:15;4.15;;;2.90;;
11535;SDS011;5824;49.336;8.652;2023-04-04T11:12:45;4.30;;;2.80;;
11535;SDS011;5824;49.336;8.652;2023-04-04T11:15:19;4.63;;;3.33;;
11535;SDS011;5824;49.336;8.652;2023-04-04T11:20:31;5.50;;;3.20;;
11535;SDS011;5824;49.336;8.652;2023-04-04T11:23:06;5.13;;;2.90;;
11535;SDS011;5824;49.336;8.652;2023-04-04T11:25:36;8.23;;;3.10;;
11535;SDS011;5824;49.336;8.652;2023-04-04T11:28:13;5.10;;;3.07;;
11535;SDS011;5824;49.336;8.652;2023-04-04T11:30:51;6.80;;;2.90;;
11535;SDS011;5824;49.336;8.652;2023-04-04T11:34:04;7.03;;;3.07;;
11535;SDS011;5824;49.336;8.652;2023-04-04T11:39:06;9.02;;;3.28;;
11535;SDS011;5824;49.336;8.652;2023-04-04T11:44:31;5.10;;;3.07;;
11535;SDS011;5824;49.336;8.652;2023-04-04T11:47:04;10.40;;;3.37;;
11535;SDS011;5824;49.336;8.652;2023-04-04T11:49:41;5.23;;;2.83;;
11535;SDS011;5824;49.336;8.652;2023-04-04T11:54:37;4.90;;;3.10;;
11535;SDS011;5824;49.336;8.652;2023-04-04T11:57:07;5.17;;;3.30;;
11535;SDS011;5824;49.336;8.652;2023-04-04T11:59:38;4.00;;;2.77;;
11535;SDS011;5824;49.336;8.652;2023-04-04T12:02:05;4.10;;;2.80;;
11535;SDS011;5824;49.336;8.652;2023-04-04T12:04:33;6.10;;;3.30;;
11535;SDS011;5824;49.336;8.652;2023-04-04T12:07:00;5.45;;;3.95;;
11535;SDS011;5824;49.336;8.652;2023-04-04T12:09:26;5.07;;;3.05;;
11535;SDS011;5824;49.336;8.652;2023-04-04T12:11:52;4.75;;;2.92;;
11535;SDS011;5824;49.336;8.652;2023-04-04T12:14:20;5.57;;;2.97;;
11535;SDS011;5824;49.336;8.652;2023-04-04T12:16:47;5.10;;;2.90;;
11535;SDS011;5824;49.336;8.652;2023-04-04T12:19:14;5.35;;;3.05;;
11535;SDS011;5824;49.336;8.652;2023-04-04T12:21:40;4.45;;;2.90;;
11535;SDS011;5824;49.336;8.652;2023-04-04T12:24:07;4.60;;;3.00;;
11535;SDS011;5824;49.336;8.652;2023-04-04T12:26:36;4.45;;;3.05;;
11535;SDS011;5824;49.336;8.652;2023-04-04T12:29:03;5.38;;;3.00;;
11535;SDS011;5824;49.336;8.652;2023-04-04T12:31:30;5.55;;;3.35;;
11535;SDS011;5824;49.336;8.652;2023-04-04T12:33:56;5.25;;;3.15;;
11535;SDS011;5824;49.336;8.652;2023-04-04T12:36:24;6.97;;;2.72;;
11535;SDS011;5824;49.336;8.652;2023-04-04T12:38:57;4.50;;;3.00;;
11535;SDS011;5824;49.336;8.652;2023-04-04T12:41:32;6.83;;;3.17;;
11535;SDS011;5824;49.336;8.652;2023-04-04T12:44:02;4.80;;;2.97;;
11535;SDS011;5824;49.336;8.652;2023-04-04T12:46:40;4.03;;;2.70;;
11535;SDS011;5824;49.336;8.652;2023-04-04T12:49:06;5.57;;;3.33;;
11535;SDS011;5824;49.336;8.652;2023-04-04T12:51:36;4.80;;;2.97;;
11535;SDS011;5824;49.336;8.652;2023-04-04T12:54:05;3.97;;;2.92;;
11535;SDS011;5824;49.336;8.652;2023-04-04T12:56:32;5.65;;;3.22;;
11535;SDS011;5824;49.336;8.652;2023-04-04T12:59:00;3.90;;;3.10;;
11535;SDS011;5824;49.336;8.652;2023-04-04T13:01:28;4.65;;;3.35;;
11535;SDS011;5824;49.336;8.652;2023-04-04T13:04:00;6.78;;;3.33;;
11535;SDS011;5824;49.336;8.652;2023-04-04T13:06:29;4.28;;;3.13;;
11535;SDS011;5824;49.336;8.652;2023-04-04T13:08:56;7.07;;;3.33;;
11535;SDS011;5824;49.336;8.652;2023-04-04T13:11:22;5.00;;;3.17;;
11535;SDS011;5824;49.336;8.652;2023-04-04T13:13:58;8.00;;;3.13;;
11535;SDS011;5824;49.336;8.652;2023-04-04T13:18:56;4.57;;;2.87;;
11535;SDS011;5824;49.336;8.652;2023-04-04T13:21:22;4.07;;;2.83;;
11535;SDS011;5824;49.336;8.652;2023-04-04T13:23:48;4.87;;;3.03;;
11535;SDS011;5824;49.336;8.652;2023-04-04T13:26:14;5.50;;;3.08;;
11535;SDS011;5824;49.336;8.652;2023-04-04T13:28:40;4.57;;;2.95;;
11535;SDS011;5824;49.336;8.652;2023-04-04T13:31:06;5.13;;;2.80;;
11535;SDS011;5824;49.336;8.652;2023-04-04T13:33:33;5.60;;;3.22;;
11535;SDS011;5824;49.336;8.652;2023-04-04T13:35:59;4.50;;;3.47;;
11535;SDS011;5824;49.336;8.652;2023-04-04T13:38:26;4.77;;;3.10;;
11535;SDS011;5824;49.336;8.652;2023-04-04T13:40:53;4.83;;;3.70;;
11535;SDS011;5824;49.336;8.652;2023-04-04T13:43:19;4.80;;;3.70;;
11535;SDS011;5824;49.336;8.652;2023-04-04T13:45:45;5.63;;;3.33;;
11535;SDS011;5824;49.336;8.652;2023-04-04T13:48:11;5.10;;;3.20;;
11535;SDS011;5824;49.336;8.652;2023-04-04T13:50:41;3.83;;;2.90;;
11535;SDS011;5824;49.336;8.652;2023-04-04T13:53:08;4.40;;;3.07;;
11535;SDS011;5824;49.336;8.652;2023-04-04T13:55:35;4.80;;;2.83;;
11535;SDS011;5824;49.336;8.652;2023-04-04T13:58:01;5.70;;;3.53;;
11535;SDS011;5824;49.336;8.652;2023-04-04T14:00:26;5.47;;;3.30;;
11535;SDS011;5824;49.336;8.652;2023-04-04T14:02:52;5.63;;;2.80;;
11535;SDS011;5824;49.336;8.652;2023-04-04T14:05:19;4.73;;;3.00;;
11535;SDS011;5824;49.336;8.652;2023-04-04T14:07:45;3.90;;;2.60;;
11535;SDS011;5824;49.336;8.652;2023-04-04T14:10:10;4.43;;;3.00;;
11535;SDS011;5824;49.336;8.652;2023-04-04T14:12:36;5.43;;;3.30;;
11535;SDS011;5824;49.336;8.652;2023-04-04T14:15:03;5.57;;;3.90;;
11535;SDS011;5824;49.336;8.652;2023-04-04T14:17:31;5.60;;;3.37;;
11535;SDS011;5824;49.336;8.652;2023-04-04T14:19:57;5.83;;;3.40;;
11535;SDS011;5824;49.336;8.652;2023-04-04T14:22:22;4.87;;;3.23;;
11535;SDS011;5824;49.336;8.652;2023-04-04T14:24:48;4.80;;;2.93;;
11535;SDS011;5824;49.336;8.652;2023-04-04T14:27:13;4.80;;;3.37;;
11535;SDS011;5824;49.336;8.652;2023-04-04T14:29:39;4.83;;;3.40;;
11535;SDS011;5824;49.336;8.652;2023-04-04T14:32:05;4.10;;;3.07;;
11535;SDS011;5824;49.336;8.652;2023-04-04T14:34:31;6.53;;;3.67;;
11535;SDS011;5824;49.336;8.652;2023-04-04T14:36:56;4.90;;;3.00;;
11535;SDS011;5824;49.336;8.652;2023-04-04T14:39:23;4.60;;;3.30;;
11535;SDS011;5824;49.336;8.652;2023-04-04T14:41:48;6.57;;;3.40;;
11535;SDS011;5824;49.336;8.652;2023-04-04T14:44:14;7.00;;;4.10;;
11535;SDS011;5824;49.336;8.652;2023-04-04T14:46:40;5.10;;;3.60;;
11535;SDS011;5824;49.336;8.652;2023-04-04T14:49:05;5.20;;;3.70;;
11535;SDS011;5824;49.336;8.652;2023-04-04T14:51:32;4.73;;;3.20;;
11535;SDS011;5824;49.336;8.652;2023-04-04T14:53:58;4.50;;;3.37;;
11535;SDS011;5824;49.336;8.652;2023-04-04T14:56:24;4.93;;;3.47;;
11535;SDS011;5824;49.336;8.652;2023-04-04T14:58:50;5.63;;;3.50;;
11535;SDS011;5824;49.336;8.652;2023-04-04T15:01:16;5.43;;;3.77;;
11535;SDS011;5824;49.336;8.652;2023-04-04T15:03:45;8.27;;;3.27;;
11535;SDS011;5824;49.336;8.652;2023-04-04T15:06:10;5.37;;;3.50;;
11535;SDS011;5824;49.336;8.652;2023-04-04T15:08:36;4.90;;;3.60;;
11535;SDS011;5824;49.336;8.652;2023-04-04T15:11:01;6.13;;;3.70;;
11535;SDS011;5824;49.336;8.652;2023-04-04T15:13:27;8.00;;;3.47;;
11535;SDS011;5824;49.336;8.652;2023-04-04T15:15:53;4.50;;;3.60;;
11535;SDS011;5824;49.336;8.652;2023-04-04T15:18:18;6.20;;;3.43;;
11535;SDS011;5824;49.336;8.652;2023-04-04T15:20:44;6.50;;;3.80;;
11535;SDS011;5824;49.336;8.652;2023-04-04T15:23:10;5.17;;;3.60;;
11535;SDS011;5824;49.336;8.652;2023-04-04T15:25:35;6.03;;;3.53;;
11535;SDS011;5824;49.336;8.652;2023-04-04T15:28:01;5.27;;;3.70;;
11535;SDS011;5824;49.336;8.652;2023-04-04T15:30:26;5.67;;;3.50;;
11535;SDS011;5824;49.336;8.652;2023-04-04T15:32:54;6.50;;;3.50;;
11535;SDS011;5824;49.336;8.652;2023-04-04T15:35:20;5.87;;;3.47;;
11535;SDS011;5824;49.336;8.652;2023-04-04T15:37:46;5.57;;;3.73;;
11535;SDS011;5824;49.336;8.652;2023-04-04T15:40:13;6.80;;;4.23;;
11535;SDS011;5824;49.336;8.652;2023-04-04T15:42:39;7.80;;;4.20;;
11535;SDS011;5824;49.336;8.652;2023-04-04T15:45:06;5.20;;;3.87;;
11535;SDS011;5824;49.336;8.652;2023-04-04T15:47:32;6.83;;;4.20;;
11535;SDS011;5824;49.336;8.652;2023-04-04T15:49:58;10.10;;;4.93;;